Ultra Panther — 3ESA3 — position and weather

sailwx.info

Track history (hours):
 
Tides and Currents Weather Stations Pressure Air Temp Water Temp Dewpoint Dewpoint Depression Visibility Wind Speed Wind Dir Waves Ship Positions

Ultra Panther

Last reported at 2018-Jul-21 01:35 UTC. Time now 2018-Jul-22 00:59 UTC.
Position N 38°31' E 121°09'.

Length 229 m; draft 6.3 m.

Type: Cargo ship. MMSI: 370235000.

Date/timePositionNaut miles runAvg speedWind from/ knotsBaromVisibWave heightAir tempDewpointWater temp
2018-Jul-21 01:35N 38°31' E 121°09'312.6
2018-Jul-21 01:20N 38°29' E 121°13'5112.8
2018-Jul-20 21:22N 38°11' E 122°13'512.7
2018-Jul-20 20:58N 38°09' E 122°19'1012.5
2018-Jul-20 20:09N 38°06' E 122°32'212.5
2018-Jul-20 20:00N 38°05' E 122°34'1212.6
2018-Jul-20 19:04N 37°59' E 122°47'113.2
2018-Jul-20 19:00N 37°59' E 122°48'713.0
2018-Jul-20 18:27N 37°55' E 122°55'  
Track history (hours):
 
Tides and Currents Weather Stations Pressure Air Temp Water Temp Dewpoint Dewpoint Depression Visibility Wind Speed Wind Dir Waves Ship Positions

Ultra Panther

Last reported at 2018-Jul-21 01:35 UTC. Time now 2018-Jul-22 00:59 UTC.
Position N 38°31' E 121°09'.

Length 229 m; draft 6.3 m.

Type: Cargo ship. MMSI: 370235000.

Date/timePositionNaut miles runAvg speedWind from/ knotsBaromVisibWave heightAir tempDewpointWater temp
2018-Jul-21 01:35N 38°31' E 121°09'312.6
2018-Jul-21 01:20N 38°29' E 121°13'5112.8
2018-Jul-20 21:22N 38°11' E 122°13'512.7
2018-Jul-20 20:58N 38°09' E 122°19'1012.5
2018-Jul-20 20:09N 38°06' E 122°32'212.5
2018-Jul-20 20:00N 38°05' E 122°34'1212.6
2018-Jul-20 19:04N 37°59' E 122°47'113.2
2018-Jul-20 19:00N 37°59' E 122°48'713.0
2018-Jul-20 18:27N 37°55' E 122°55'  

Dump ship's entire track history